createdAt,value
2018-06-23T00:00:47.079Z,14.70
2018-06-23T00:03:15.163Z,14.70
2018-06-23T00:05:43.275Z,14.70
2018-06-23T00:08:11.410Z,14.70
2018-06-23T00:10:39.532Z,14.60
2018-06-23T00:13:07.640Z,14.60
2018-06-23T00:15:35.783Z,14.60
2018-06-23T00:18:03.948Z,14.60
2018-06-23T00:20:32.041Z,14.50
2018-06-23T00:23:00.195Z,14.60
2018-06-23T00:25:33.707Z,14.50
2018-06-23T00:28:01.843Z,14.50
2018-06-23T00:30:29.985Z,14.50
2018-06-23T00:32:58.103Z,14.50
2018-06-23T00:35:26.238Z,14.40
2018-06-23T00:37:54.327Z,14.40
2018-06-23T00:40:22.403Z,14.40
2018-06-23T00:42:50.499Z,14.30
2018-06-23T00:45:18.612Z,14.30
2018-06-23T00:47:46.735Z,14.30
2018-06-23T00:50:14.867Z,14.30
2018-06-23T00:52:43.020Z,14.30
2018-06-23T00:55:11.157Z,14.20
2018-06-23T00:57:39.328Z,14.20
2018-06-23T01:00:07.475Z,14.30
2018-06-23T01:02:35.623Z,14.20
2018-06-23T01:05:03.783Z,14.20
2018-06-23T01:07:31.984Z,14.20
2018-06-23T01:10:00.134Z,14.10
2018-06-23T01:12:28.403Z,14.20
2018-06-23T01:14:56.531Z,14.20
2018-06-23T01:17:24.666Z,14.20
2018-06-23T01:22:20.753Z,14.20
2018-06-23T01:24:48.876Z,14.20
2018-06-23T01:27:17.024Z,14.20
2018-06-23T01:29:45.146Z,14.10
2018-06-23T01:32:13.311Z,14.10
2018-06-23T01:34:41.472Z,14.10
2018-06-23T01:37:09.638Z,14.10
2018-06-23T01:39:37.799Z,14.10
2018-06-23T01:42:06.157Z,14.10
2018-06-23T01:44:34.358Z,14.10
2018-06-23T01:47:02.524Z,14.10
2018-06-23T01:49:30.695Z,14.10
2018-06-23T01:51:58.842Z,14.00
2018-06-23T01:54:27.518Z,13.90
2018-06-23T01:56:55.655Z,13.80
2018-06-23T01:59:23.786Z,13.90
2018-06-23T02:01:51.924Z,13.80
2018-06-23T02:04:20.079Z,13.80
2018-06-23T02:06:48.228Z,13.70
2018-06-23T02:09:16.376Z,13.70
2018-06-23T02:11:44.522Z,13.60
2018-06-23T02:14:17.915Z,13.50
2018-06-23T02:16:51.563Z,13.40
2018-06-23T02:19:25.097Z,13.40
2018-06-23T02:21:58.724Z,13.40
2018-06-23T02:24:32.367Z,13.40
2018-06-23T02:27:06.080Z,13.50
2018-06-23T02:29:39.771Z,13.40
2018-06-23T02:32:13.339Z,13.40
2018-06-23T02:34:46.969Z,13.30
2018-06-23T02:37:15.116Z,13.30
2018-06-23T02:39:43.377Z,13.40
2018-06-23T02:42:11.523Z,13.40
2018-06-23T02:44:39.692Z,13.30
2018-06-23T02:47:07.802Z,13.30
2018-06-23T02:49:35.978Z,13.30
2018-06-23T02:52:04.091Z,13.30
2018-06-23T02:54:32.237Z,13.30
2018-06-23T02:57:00.377Z,13.30
2018-06-23T02:59:28.880Z,13.30
2018-06-23T03:01:56.970Z,13.30
2018-06-23T03:04:25.067Z,13.20
2018-06-23T03:06:53.159Z,13.20
2018-06-23T03:09:21.269Z,13.20
2018-06-23T03:11:49.416Z,13.20
2018-06-23T03:14:17.532Z,13.20
2018-06-23T03:16:45.635Z,13.20
2018-06-23T03:19:13.745Z,13.20
2018-06-23T03:21:41.895Z,13.30
2018-06-23T03:24:10.023Z,13.30
2018-06-23T03:26:38.139Z,13.20
2018-06-23T03:29:06.260Z,13.20
2018-06-23T03:31:34.369Z,13.20
2018-06-23T03:34:02.500Z,13.20
2018-06-23T03:36:30.607Z,13.20
2018-06-23T03:38:58.715Z,13.30
2018-06-23T03:41:26.788Z,13.20
2018-06-23T03:46:22.893Z,13.30
2018-06-23T03:48:51.027Z,13.30
2018-06-23T03:51:19.119Z,13.30
2018-06-23T03:53:47.270Z,13.30
2018-06-23T03:56:15.377Z,13.30
2018-06-23T03:58:43.496Z,13.20
2018-06-23T04:01:11.619Z,13.20
2018-06-23T04:03:39.743Z,13.30
2018-06-23T04:06:07.842Z,13.20
2018-06-23T04:08:35.992Z,13.20
2018-06-23T04:11:04.384Z,13.20
2018-06-23T04:13:32.769Z,13.20
2018-06-23T04:16:01.156Z,13.20
2018-06-23T04:18:29.281Z,13.10
2018-06-23T04:20:57.412Z,13.10
2018-06-23T04:23:25.506Z,13.10
2018-06-23T04:25:53.707Z,13.00
2018-06-23T04:28:21.799Z,13.00
2018-06-23T04:30:50.013Z,13.10
2018-06-23T04:33:18.103Z,13.00
2018-06-23T04:35:46.217Z,13.00
2018-06-23T04:38:14.319Z,13.00
2018-06-23T04:40:42.449Z,13.10
2018-06-23T04:43:10.558Z,13.10
2018-06-23T04:45:38.671Z,13.10
2018-06-23T04:48:06.786Z,13.10
2018-06-23T04:50:34.947Z,13.20
2018-06-23T04:53:03.093Z,13.20
2018-06-23T04:55:31.262Z,13.20
2018-06-23T04:57:59.516Z,13.30
2018-06-23T05:00:27.675Z,13.30
2018-06-23T05:02:56.599Z,13.30
2018-06-23T05:05:25.493Z,13.30
2018-06-23T05:07:53.883Z,13.40
2018-06-23T05:10:22.024Z,13.40
2018-06-23T05:12:50.464Z,13.30
2018-06-23T05:15:18.616Z,13.30
2018-06-23T05:17:46.759Z,13.40
2018-06-23T05:20:14.994Z,13.40
2018-06-23T05:22:43.119Z,13.50
2018-06-23T05:25:11.299Z,13.50
2018-06-23T05:27:39.431Z,13.50
2018-06-23T05:30:07.561Z,13.50
2018-06-23T05:32:35.745Z,13.60
2018-06-23T05:35:03.923Z,13.60
2018-06-23T05:37:32.176Z,13.60
2018-06-23T05:40:00.639Z,13.60
2018-06-23T05:42:28.817Z,13.60
2018-06-23T05:44:56.967Z,13.70
2018-06-23T05:47:25.121Z,13.70
2018-06-23T05:49:53.354Z,13.70
2018-06-23T05:52:21.949Z,13.80
2018-06-23T05:54:50.064Z,13.90
2018-06-23T05:57:18.355Z,13.90
2018-06-23T06:02:21.108Z,14.10
2018-06-23T06:04:49.232Z,14.10
2018-06-23T06:07:17.340Z,14.20
2018-06-23T06:09:45.435Z,14.10
2018-06-23T06:12:13.533Z,14.20
2018-06-23T06:14:41.637Z,14.20
2018-06-23T06:17:27.999Z,14.20
2018-06-23T06:19:58.540Z,14.30
2018-06-23T06:22:27.869Z,14.50
2018-06-23T06:24:56.575Z,14.70
2018-06-23T06:27:24.677Z,14.90
2018-06-23T06:29:53.436Z,15.00
2018-06-23T06:32:21.943Z,15.20
2018-06-23T06:34:50.084Z,15.50
2018-06-23T06:37:18.187Z,15.70
2018-06-23T06:39:46.710Z,15.80
2018-06-23T06:42:14.981Z,15.90
2018-06-23T06:44:43.143Z,16.00
2018-06-23T06:47:12.576Z,16.00
2018-06-23T06:49:40.728Z,15.90
2018-06-23T06:52:08.864Z,15.80
2018-06-23T06:54:37.040Z,15.80
2018-06-23T06:57:05.197Z,15.90
2018-06-23T06:59:33.303Z,15.90
2018-06-23T07:02:01.427Z,16.00
2018-06-23T07:04:29.571Z,15.90
2018-06-23T07:06:57.692Z,15.90
2018-06-23T07:09:25.788Z,15.80
2018-06-23T07:11:53.873Z,15.90
2018-06-23T07:14:21.987Z,15.90
2018-06-23T07:16:50.102Z,16.20
2018-06-23T07:19:18.200Z,16.40
2018-06-23T07:21:46.312Z,16.40
2018-06-23T07:24:14.512Z,16.50
2018-06-23T07:26:42.551Z,16.60
2018-06-23T07:29:10.680Z,16.70
2018-06-23T07:31:38.821Z,16.70
2018-06-23T07:34:06.936Z,16.80
2018-06-23T07:36:35.041Z,17.00
2018-06-23T07:39:04.133Z,17.10
2018-06-23T07:41:32.300Z,17.10
2018-06-23T07:44:00.417Z,17.10
2018-06-23T07:46:28.576Z,17.10
2018-06-23T07:48:56.645Z,17.30
2018-06-23T07:51:24.732Z,17.30
2018-06-23T07:53:52.865Z,17.30
2018-06-23T07:56:21.016Z,17.20
2018-06-23T07:58:49.083Z,17.30
2018-06-23T08:01:17.171Z,17.30
2018-06-23T08:03:45.297Z,17.40
2018-06-23T08:06:13.496Z,17.50
2018-06-23T08:08:41.585Z,17.60
2018-06-23T08:11:09.701Z,17.70
2018-06-23T08:13:37.832Z,17.70
2018-06-23T08:16:06.577Z,17.70
2018-06-23T08:18:34.683Z,17.80
2018-06-23T08:21:02.784Z,17.90
2018-06-23T08:23:30.880Z,18.10
2018-06-23T08:25:58.995Z,18.10
2018-06-23T08:28:27.120Z,18.30
2018-06-23T08:30:55.215Z,18.40
2018-06-23T08:33:23.515Z,18.60
2018-06-23T08:35:51.719Z,18.80
2018-06-23T08:38:19.803Z,19.10
2018-06-23T08:40:47.898Z,19.40
2018-06-23T08:43:16.045Z,19.40
2018-06-23T08:45:44.165Z,19.50
2018-06-23T08:48:12.287Z,19.60
2018-06-23T08:50:40.438Z,19.60
2018-06-23T08:53:08.574Z,19.40
2018-06-23T08:55:36.760Z,19.40
2018-06-23T08:58:04.923Z,19.70
2018-06-23T09:00:33.068Z,19.90
2018-06-23T09:03:01.220Z,20.30
2018-06-23T09:05:29.364Z,20.40
2018-06-23T09:07:57.524Z,20.60
2018-06-23T09:10:25.672Z,20.70
2018-06-23T09:12:53.847Z,20.80
2018-06-23T09:15:22.020Z,20.90
2018-06-23T09:17:50.283Z,21.00
2018-06-23T09:20:18.439Z,21.10
2018-06-23T09:22:46.660Z,21.00
2018-06-23T09:25:14.799Z,20.80
2018-06-23T09:27:42.944Z,20.60
2018-06-23T09:30:11.075Z,20.60
2018-06-23T09:32:39.222Z,20.70
2018-06-23T09:35:07.383Z,20.90
2018-06-23T09:37:35.533Z,20.90
2018-06-23T09:40:03.668Z,21.00
2018-06-23T09:42:31.828Z,21.00
2018-06-23T09:45:00.096Z,20.80
2018-06-23T09:47:28.227Z,20.60
2018-06-23T09:49:56.415Z,20.30
2018-06-23T09:52:24.599Z,20.10
2018-06-23T09:54:52.755Z,20.20
2018-06-23T09:57:20.943Z,20.20
2018-06-23T09:59:49.078Z,20.10
2018-06-23T10:02:17.228Z,20.30
2018-06-23T10:04:45.369Z,20.40
2018-06-23T10:07:14.611Z,20.40
2018-06-23T10:09:42.727Z,20.50
2018-06-23T10:12:10.891Z,20.50
2018-06-23T10:14:39.060Z,20.60
2018-06-23T10:17:07.219Z,20.70
2018-06-23T10:19:35.371Z,20.90
2018-06-23T10:22:03.566Z,21.10
2018-06-23T10:24:31.752Z,21.30
2018-06-23T10:26:59.864Z,21.30
2018-06-23T10:29:28.095Z,21.30
2018-06-23T10:31:56.276Z,21.40
2018-06-23T10:34:24.448Z,21.60
2018-06-23T10:36:52.624Z,22.00
2018-06-23T10:39:20.761Z,22.30
2018-06-23T10:41:48.895Z,22.50
2018-06-23T10:44:17.044Z,22.60
2018-06-23T10:46:45.241Z,22.70
2018-06-23T10:49:13.412Z,22.80
2018-06-23T10:51:41.532Z,22.90
2018-06-23T10:54:09.627Z,23.20
2018-06-23T10:56:37.739Z,23.50
2018-06-23T10:59:05.931Z,23.70
2018-06-23T11:01:34.045Z,24.00
2018-06-23T11:04:02.145Z,24.10
2018-06-23T11:06:30.288Z,24.20
2018-06-23T11:08:58.446Z,24.10
2018-06-23T11:11:26.578Z,24.00
2018-06-23T11:13:54.699Z,23.80
2018-06-23T11:16:22.824Z,23.80
2018-06-23T11:18:50.954Z,23.80
2018-06-23T11:21:19.111Z,23.60
2018-06-23T11:23:47.247Z,23.40
2018-06-23T11:26:15.370Z,23.20
2018-06-23T11:28:43.507Z,22.90
2018-06-23T11:31:11.593Z,22.60
2018-06-23T11:33:39.695Z,22.20
2018-06-23T11:36:07.826Z,22.10
2018-06-23T11:38:36.024Z,22.10
2018-06-23T11:41:04.193Z,22.20
2018-06-23T11:43:32.430Z,22.40
2018-06-23T11:46:00.719Z,22.40
2018-06-23T11:48:28.867Z,22.20
2018-06-23T11:50:56.994Z,22.00
2018-06-23T11:53:25.267Z,22.00
2018-06-23T11:55:53.425Z,21.90
2018-06-23T11:58:21.573Z,21.90
2018-06-23T12:00:49.929Z,22.00
2018-06-23T12:03:18.245Z,22.10
2018-06-23T12:05:46.306Z,22.40
2018-06-23T12:08:14.409Z,22.70
2018-06-23T12:10:42.495Z,23.00
2018-06-23T12:13:10.656Z,23.10
2018-06-23T12:15:38.816Z,23.10
2018-06-23T12:18:06.898Z,23.20
2018-06-23T12:20:35.271Z,23.40
2018-06-23T12:23:03.394Z,23.60
2018-06-23T12:25:31.555Z,23.50
2018-06-23T12:27:59.678Z,23.40
2018-06-23T12:30:27.850Z,23.30
2018-06-23T12:32:55.903Z,23.20
2018-06-23T12:35:24.000Z,23.20
2018-06-23T12:37:52.086Z,23.20
2018-06-23T12:42:48.044Z,23.10
2018-06-23T12:45:16.208Z,23.30
2018-06-23T12:47:44.362Z,23.40
2018-06-23T12:50:12.515Z,23.30
2018-06-23T12:52:40.727Z,23.20
2018-06-23T12:55:08.895Z,23.10
2018-06-23T12:57:37.169Z,23.10
2018-06-23T13:00:06.346Z,23.00
2018-06-23T13:02:34.521Z,23.00
2018-06-23T13:05:02.752Z,23.10
2018-06-23T13:07:30.960Z,23.20
2018-06-23T13:09:59.143Z,23.20
2018-06-23T13:12:27.302Z,22.90
2018-06-23T13:14:55.463Z,22.90
2018-06-23T13:17:23.631Z,22.90
2018-06-23T13:19:51.819Z,22.90
2018-06-23T13:22:19.993Z,22.80
2018-06-23T13:24:48.109Z,22.80
2018-06-23T13:27:16.227Z,22.80
2018-06-23T13:29:44.410Z,22.90
2018-06-23T13:32:12.613Z,22.80
2018-06-23T13:34:40.803Z,22.70
2018-06-23T13:37:08.994Z,22.60
2018-06-23T13:39:37.237Z,22.40
2018-06-23T13:42:05.387Z,22.30
2018-06-23T13:44:33.539Z,22.30
2018-06-23T13:47:01.723Z,22.60
2018-06-23T13:49:29.895Z,22.50
2018-06-23T13:51:58.209Z,22.60
2018-06-23T13:54:26.732Z,22.60
2018-06-23T13:56:54.880Z,22.60
2018-06-23T13:59:23.179Z,22.60
2018-06-23T14:01:51.308Z,22.70
2018-06-23T14:04:19.481Z,22.50
2018-06-23T14:06:47.655Z,22.90
2018-06-23T14:09:15.802Z,23.40
2018-06-23T14:11:43.945Z,23.50
2018-06-23T14:14:12.079Z,23.70
2018-06-23T14:16:40.224Z,23.60
2018-06-23T14:19:08.397Z,23.70
2018-06-23T14:21:36.801Z,23.90
2018-06-23T14:24:04.926Z,24.00
2018-06-23T14:26:33.054Z,23.70
2018-06-23T14:29:01.667Z,23.50
2018-06-23T14:31:29.989Z,23.30
2018-06-23T14:33:57.997Z,23.30
2018-06-23T14:36:26.140Z,23.40
2018-06-23T14:38:54.280Z,23.50
2018-06-23T14:41:22.416Z,23.70
2018-06-23T14:43:50.584Z,23.60
2018-06-23T14:46:18.743Z,23.40
2018-06-23T14:48:46.900Z,23.30
2018-06-23T14:51:15.052Z,23.20
2018-06-23T14:53:43.208Z,23.50
2018-06-23T14:56:11.384Z,23.70
2018-06-23T14:58:39.523Z,23.80
2018-06-23T15:01:07.700Z,23.90
2018-06-23T15:03:35.908Z,24.00
2018-06-23T15:06:06.095Z,24.00
2018-06-23T15:08:45.775Z,23.80
2018-06-23T15:11:25.343Z,23.70
2018-06-23T15:13:53.516Z,23.70
2018-06-23T15:16:21.736Z,23.70
2018-06-23T15:18:49.912Z,23.90
2018-06-23T15:21:18.069Z,23.90
2018-06-23T15:23:46.262Z,23.80
2018-06-23T15:26:14.480Z,23.60
2018-06-23T15:28:43.041Z,23.50
2018-06-23T15:31:11.217Z,23.40
2018-06-23T15:33:39.451Z,23.30
2018-06-23T15:36:07.561Z,23.10
2018-06-23T15:38:35.703Z,23.00
2018-06-23T15:41:05.388Z,23.00
2018-06-23T15:43:33.616Z,23.00
2018-06-23T15:46:01.988Z,22.80
2018-06-23T15:48:30.140Z,22.60
2018-06-23T15:50:58.394Z,22.60
2018-06-23T15:53:26.547Z,22.50
2018-06-23T15:55:54.722Z,22.50
2018-06-23T15:58:22.855Z,22.60
2018-06-23T16:00:51.054Z,22.70
2018-06-23T16:03:19.326Z,22.80
2018-06-23T16:05:47.489Z,22.70
2018-06-23T16:08:15.611Z,22.70
2018-06-23T16:10:43.756Z,22.80
2018-06-23T16:13:11.876Z,22.80
2018-06-23T16:15:40.016Z,22.80
2018-06-23T16:18:08.176Z,22.90
2018-06-23T16:20:36.323Z,23.00
2018-06-23T16:23:04.511Z,23.10
2018-06-23T16:25:32.607Z,23.20
2018-06-23T16:28:00.786Z,23.20
2018-06-23T16:30:28.904Z,23.20
2018-06-23T16:32:57.095Z,23.10
2018-06-23T16:35:25.640Z,22.90
2018-06-23T16:37:53.405Z,22.90
2018-06-23T16:42:49.495Z,22.80
2018-06-23T16:45:17.629Z,22.70
2018-06-23T16:47:45.860Z,22.60
2018-06-23T16:50:14.047Z,22.50
2018-06-23T16:52:42.187Z,22.40
2018-06-23T16:55:10.348Z,22.40
2018-06-23T16:57:38.432Z,22.30
2018-06-23T17:00:06.542Z,22.20
2018-06-23T17:02:34.636Z,22.30
2018-06-23T17:05:02.756Z,22.30
2018-06-23T17:07:30.832Z,22.30
2018-06-23T17:09:58.907Z,22.30
2018-06-23T17:12:27.103Z,22.30
2018-06-23T17:17:23.114Z,22.30
2018-06-23T17:19:51.216Z,22.20
2018-06-23T17:22:19.440Z,22.10
2018-06-23T17:24:47.512Z,22.00
2018-06-23T17:27:15.660Z,22.00
2018-06-23T17:29:43.683Z,21.90
2018-06-23T17:32:11.788Z,21.80
2018-06-23T17:34:39.893Z,21.70
2018-06-23T17:37:07.999Z,21.60
2018-06-23T17:39:36.123Z,21.50
2018-06-23T17:42:04.224Z,21.40
2018-06-23T17:44:32.369Z,21.30
2018-06-23T17:47:00.487Z,21.30
2018-06-23T17:49:28.584Z,21.20
2018-06-23T17:51:56.684Z,21.00
2018-06-23T17:54:24.768Z,20.90
2018-06-23T17:56:52.856Z,20.70
2018-06-23T17:59:20.956Z,20.70
2018-06-23T18:01:49.060Z,20.60
2018-06-23T18:04:17.189Z,20.50
2018-06-23T18:06:45.303Z,20.50
2018-06-23T18:09:13.415Z,20.50
2018-06-23T18:11:41.531Z,20.40
2018-06-23T18:14:10.069Z,20.40
2018-06-23T18:16:38.271Z,20.40
2018-06-23T18:19:06.843Z,20.30
2018-06-23T18:21:34.952Z,20.20
2018-06-23T18:24:03.048Z,20.10
2018-06-23T18:26:31.208Z,20.00
2018-06-23T18:28:59.383Z,19.90
2018-06-23T18:31:27.492Z,19.90
2018-06-23T18:33:55.591Z,19.70
2018-06-23T18:36:23.690Z,19.60
2018-06-23T18:38:51.801Z,19.50
2018-06-23T18:41:19.929Z,19.50
2018-06-23T18:43:48.023Z,19.40
2018-06-23T18:46:16.122Z,19.40
2018-06-23T18:48:44.225Z,19.30
2018-06-23T18:51:12.320Z,19.20
2018-06-23T18:53:40.430Z,19.20
2018-06-23T18:56:08.531Z,19.20
2018-06-23T18:58:36.631Z,19.20
2018-06-23T19:01:04.746Z,19.20
2018-06-23T19:03:32.865Z,19.10
2018-06-23T19:06:00.952Z,19.10
2018-06-23T19:08:29.051Z,19.10
2018-06-23T19:10:57.179Z,19.00
2018-06-23T19:13:25.287Z,19.00
2018-06-23T19:15:53.372Z,19.00
2018-06-23T19:18:21.523Z,19.00
2018-06-23T19:20:49.614Z,18.90
2018-06-23T19:23:17.702Z,18.90
2018-06-23T19:25:45.784Z,18.90
2018-06-23T19:28:13.904Z,18.80
2018-06-23T19:30:42.027Z,18.80
2018-06-23T19:33:10.139Z,18.70
2018-06-23T19:35:38.302Z,18.70
2018-06-23T19:38:06.377Z,18.70
2018-06-23T19:40:34.516Z,18.70
2018-06-23T19:43:02.643Z,18.70
2018-06-23T19:45:30.767Z,18.60
2018-06-23T19:47:58.871Z,18.60
2018-06-23T19:50:26.972Z,18.60
2018-06-23T19:52:55.063Z,18.50
2018-06-23T19:55:23.187Z,18.50
2018-06-23T20:00:19.199Z,18.50
2018-06-23T20:02:47.287Z,18.50
2018-06-23T20:05:15.377Z,18.40
2018-06-23T20:07:43.491Z,18.40
2018-06-23T20:10:11.604Z,18.40
2018-06-23T20:12:39.739Z,18.40
2018-06-23T20:15:07.895Z,18.30
2018-06-23T20:17:35.993Z,18.30
2018-06-23T20:20:04.099Z,18.30
2018-06-23T20:22:32.220Z,18.30
2018-06-23T20:25:00.335Z,18.20
2018-06-23T20:27:28.446Z,18.20
2018-06-23T20:29:56.928Z,18.20
2018-06-23T20:32:25.020Z,18.20
2018-06-23T20:34:53.188Z,18.10
2018-06-23T20:37:21.320Z,18.10
2018-06-23T20:39:49.439Z,18.10
2018-06-23T20:42:17.528Z,18.00
2018-06-23T20:44:45.628Z,18.00
2018-06-23T20:47:13.752Z,17.90
2018-06-23T20:49:41.864Z,17.80
2018-06-23T20:52:09.960Z,17.80
2018-06-23T20:54:38.182Z,17.80
2018-06-23T20:57:06.267Z,17.70
2018-06-23T20:59:34.865Z,17.70
2018-06-23T21:02:02.955Z,17.60
2018-06-23T21:07:05.870Z,17.60
2018-06-23T21:09:34.012Z,17.60
2018-06-23T21:12:02.090Z,17.60
2018-06-23T21:14:30.220Z,17.60
2018-06-23T21:16:58.332Z,17.50
2018-06-23T21:19:26.405Z,17.50
2018-06-23T21:21:54.491Z,17.50
2018-06-23T21:24:22.583Z,17.50
2018-06-23T21:26:50.704Z,17.50
2018-06-23T21:29:18.795Z,17.40
2018-06-23T21:31:46.992Z,17.40
2018-06-23T21:34:15.103Z,17.40
2018-06-23T21:36:43.180Z,17.30
2018-06-23T21:39:11.378Z,17.30
2018-06-23T21:41:39.512Z,17.20
2018-06-23T21:44:07.855Z,17.20
2018-06-23T21:46:36.337Z,17.20
2018-06-23T21:49:04.627Z,17.20
2018-06-23T21:51:32.744Z,17.20
2018-06-23T21:54:00.847Z,17.10
2018-06-23T21:56:28.957Z,17.10
2018-06-23T21:58:57.066Z,17.10
2018-06-23T22:01:25.135Z,17.10
2018-06-23T22:03:53.232Z,17.10
2018-06-23T22:06:21.349Z,17.00
2018-06-23T22:08:49.471Z,17.00
2018-06-23T22:11:17.576Z,17.00
2018-06-23T22:13:45.691Z,16.90
2018-06-23T22:16:13.776Z,16.90
2018-06-23T22:18:41.868Z,16.90
2018-06-23T22:21:09.956Z,16.90
2018-06-23T22:23:38.092Z,16.90
2018-06-23T22:26:06.195Z,16.80
2018-06-23T22:28:34.315Z,16.70
2018-06-23T22:31:02.412Z,16.70
2018-06-23T22:33:30.548Z,16.70
2018-06-23T22:35:58.636Z,16.60
2018-06-23T22:38:26.807Z,16.60
2018-06-23T22:40:54.933Z,16.60
2018-06-23T22:43:23.040Z,16.60
2018-06-23T22:45:51.133Z,16.50
2018-06-23T22:48:19.212Z,16.50
2018-06-23T22:50:48.177Z,16.50
2018-06-23T22:53:16.311Z,16.50
2018-06-23T22:55:44.560Z,16.50
2018-06-23T22:58:12.764Z,16.50
2018-06-23T23:00:40.926Z,16.50
2018-06-23T23:03:09.065Z,16.50
2018-06-23T23:05:37.225Z,16.50
2018-06-23T23:08:05.455Z,16.50
2018-06-23T23:10:33.588Z,16.50
2018-06-23T23:13:01.740Z,16.40
2018-06-23T23:15:29.873Z,16.40
2018-06-23T23:17:57.996Z,16.40
2018-06-23T23:20:26.168Z,16.30
2018-06-23T23:22:54.318Z,16.30
2018-06-23T23:25:22.473Z,16.30
2018-06-23T23:27:50.698Z,16.30
2018-06-23T23:30:18.879Z,16.30
2018-06-23T23:32:47.023Z,16.30
2018-06-23T23:35:15.182Z,16.20
2018-06-23T23:37:43.308Z,16.20
2018-06-23T23:40:11.443Z,16.20
2018-06-23T23:42:39.629Z,16.20
2018-06-23T23:45:07.767Z,16.20
2018-06-23T23:47:35.928Z,16.10
2018-06-23T23:50:04.427Z,16.10
2018-06-23T23:52:32.577Z,16.10
2018-06-23T23:55:00.691Z,16.10
2018-06-23T23:57:28.788Z,16.10
2018-06-23T23:59:56.933Z,16.10
